createdAt,value
2018-01-01T00:08:26.809Z,10
2018-01-01T00:18:26.811Z,12
2018-01-01T00:28:26.849Z,8
2018-01-01T00:38:26.811Z,6
2018-01-01T00:48:26.863Z,10
2018-01-01T00:58:26.871Z,12
2018-01-01T01:08:26.855Z,11
2018-01-01T01:18:26.935Z,8
2018-01-01T01:28:26.859Z,7
2018-01-01T01:38:26.994Z,5
2018-01-01T01:48:26.914Z,5
2018-01-01T01:58:26.932Z,3
2018-01-01T02:08:26.919Z,4
2018-01-01T02:18:26.919Z,5
2018-01-01T02:28:26.906Z,6
2018-01-01T02:38:26.949Z,5
2018-01-01T02:48:27.051Z,3
2018-01-01T02:58:26.958Z,3
2018-01-01T03:08:26.936Z,2
2018-01-01T03:18:26.979Z,2
2018-01-01T03:28:26.933Z,2
2018-01-01T03:38:26.977Z,2
2018-01-01T03:48:27.011Z,2
2018-01-01T03:58:27.056Z,1
2018-01-01T04:08:27.035Z,2
2018-01-01T04:18:27.002Z,2
2018-01-01T04:28:27.072Z,1
2018-01-01T04:38:27.018Z,1
2018-01-01T04:48:27.039Z,1
2018-01-01T04:58:27.026Z,1
2018-01-01T05:08:27.082Z,1
2018-01-01T05:18:27.059Z,2
2018-01-01T05:28:27.116Z,2
2018-01-01T05:38:27.119Z,1
2018-01-01T05:48:27.052Z,2
2018-01-01T05:58:27.178Z,2
2018-01-01T06:08:27.098Z,2
2018-01-01T06:18:27.144Z,3
2018-01-01T06:28:27.107Z,3
2018-01-01T06:38:27.178Z,3
2018-01-01T06:48:27.214Z,3
2018-01-01T06:58:27.216Z,2
2018-01-01T07:08:27.168Z,2
2018-01-01T07:18:27.153Z,0
2018-01-01T07:28:27.238Z,0
2018-01-01T07:38:27.177Z,1
2018-01-01T07:48:27.249Z,1
2018-01-01T07:58:27.228Z,2
2018-01-01T08:08:27.255Z,3
2018-01-01T08:18:27.257Z,3
2018-01-01T08:28:27.259Z,2
2018-01-01T08:38:27.273Z,2
2018-01-01T08:48:27.278Z,3
2018-01-01T08:58:27.210Z,2
2018-01-01T09:08:27.232Z,2
2018-01-01T09:18:27.260Z,2
2018-01-01T09:28:27.428Z,2
2018-01-01T09:38:27.290Z,2
2018-01-01T09:48:27.325Z,3
2018-01-01T09:58:27.260Z,3
2018-01-01T10:08:27.274Z,2
2018-01-01T10:18:28.348Z,2
2018-01-01T10:28:27.322Z,2
2018-01-01T10:38:27.319Z,1
2018-01-01T10:48:27.413Z,1
2018-01-01T10:58:27.424Z,1
2018-01-01T11:08:27.401Z,1
2018-01-01T11:18:27.343Z,2
2018-01-01T11:28:27.399Z,1
2018-01-01T11:38:27.453Z,2
2018-01-01T11:48:27.439Z,2
2018-01-01T11:58:27.398Z,2
2018-01-01T12:08:27.453Z,2
2018-01-01T12:18:27.539Z,2
2018-01-01T12:28:27.505Z,3
2018-01-01T12:38:27.452Z,2
2018-01-01T12:48:27.438Z,2
2018-01-01T12:58:27.858Z,2
2018-01-01T13:08:27.466Z,2
2018-01-01T13:18:28.269Z,2
2018-01-01T13:28:28.277Z,2
2018-01-01T13:38:27.564Z,2
2018-01-01T13:48:27.593Z,2
2018-01-01T13:58:27.488Z,1
